sensor_id;sensor_type;location;lat;lon;timestamp;P1;durP1;ratioP1;P2;durP2;ratioP2
4696;SDS011;2362;50.780;0.292;2023-05-29T00:00:53;43.45;;;5.75;;
4696;SDS011;2362;50.780;0.292;2023-05-29T00:03:19;34.38;;;5.13;;
4696;SDS011;2362;50.780;0.292;2023-05-29T00:05:45;41.17;;;6.40;;
4696;SDS011;2362;50.780;0.292;2023-05-29T00:08:10;40.30;;;7.05;;
4696;SDS011;2362;50.780;0.292;2023-05-29T00:10:36;29.60;;;4.95;;
4696;SDS011;2362;50.780;0.292;2023-05-29T00:13:02;39.67;;;5.50;;
4696;SDS011;2362;50.780;0.292;2023-05-29T00:15:28;49.45;;;5.85;;
4696;SDS011;2362;50.780;0.292;2023-05-29T00:17:55;54.55;;;6.35;;
4696;SDS011;2362;50.780;0.292;2023-05-29T00:20:21;46.08;;;6.05;;
4696;SDS011;2362;50.780;0.292;2023-05-29T00:22:46;64.10;;;6.55;;
4696;SDS011;2362;50.780;0.292;2023-05-29T00:25:14;36.70;;;5.05;;
4696;SDS011;2362;50.780;0.292;2023-05-29T00:27:41;43.22;;;6.03;;
4696;SDS011;2362;50.780;0.292;2023-05-29T00:30:07;35.08;;;5.18;;
4696;SDS011;2362;50.780;0.292;2023-05-29T00:32:33;42.30;;;5.68;;
4696;SDS011;2362;50.780;0.292;2023-05-29T00:34:58;44.20;;;5.75;;
4696;SDS011;2362;50.780;0.292;2023-05-29T00:37:24;50.00;;;5.55;;
4696;SDS011;2362;50.780;0.292;2023-05-29T00:39:50;32.38;;;5.30;;
4696;SDS011;2362;50.780;0.292;2023-05-29T00:42:16;41.78;;;6.03;;
4696;SDS011;2362;50.780;0.292;2023-05-29T00:44:42;32.75;;;5.72;;
4696;SDS011;2362;50.780;0.292;2023-05-29T00:47:07;34.47;;;4.70;;
4696;SDS011;2362;50.780;0.292;2023-05-29T00:49:33;34.88;;;5.80;;
4696;SDS011;2362;50.780;0.292;2023-05-29T00:52:01;47.13;;;6.03;;
4696;SDS011;2362;50.780;0.292;2023-05-29T00:54:29;36.83;;;5.07;;
4696;SDS011;2362;50.780;0.292;2023-05-29T00:56:56;30.92;;;5.18;;
4696;SDS011;2362;50.780;0.292;2023-05-29T00:59:23;27.63;;;4.97;;
4696;SDS011;2362;50.780;0.292;2023-05-29T01:01:54;45.25;;;6.55;;
4696;SDS011;2362;50.780;0.292;2023-05-29T01:04:20;33.13;;;5.05;;
4696;SDS011;2362;50.780;0.292;2023-05-29T01:06:48;41.95;;;5.72;;
4696;SDS011;2362;50.780;0.292;2023-05-29T01:09:14;27.17;;;5.28;;
4696;SDS011;2362;50.780;0.292;2023-05-29T01:14:48;43.72;;;6.72;;
4696;SDS011;2362;50.780;0.292;2023-05-29T01:20:25;30.77;;;5.57;;
4696;SDS011;2362;50.780;0.292;2023-05-29T01:28:21;27.40;;;4.82;;
4696;SDS011;2362;50.780;0.292;2023-05-29T01:30:52;34.75;;;5.20;;
4696;SDS011;2362;50.780;0.292;2023-05-29T01:33:19;32.80;;;6.80;;
4696;SDS011;2362;50.780;0.292;2023-05-29T01:35:45;41.50;;;5.13;;
4696;SDS011;2362;50.780;0.292;2023-05-29T01:38:11;33.80;;;5.18;;
4696;SDS011;2362;50.780;0.292;2023-05-29T01:40:39;43.25;;;5.70;;
4696;SDS011;2362;50.780;0.292;2023-05-29T01:43:05;33.38;;;5.25;;
4696;SDS011;2362;50.780;0.292;2023-05-29T01:45:32;38.30;;;5.70;;
4696;SDS011;2362;50.780;0.292;2023-05-29T01:47:58;32.25;;;5.50;;
4696;SDS011;2362;50.780;0.292;2023-05-29T01:50:24;31.40;;;5.75;;
4696;SDS011;2362;50.780;0.292;2023-05-29T01:52:51;28.13;;;5.15;;
4696;SDS011;2362;50.780;0.292;2023-05-29T01:55:41;36.72;;;5.47;;
4696;SDS011;2362;50.780;0.292;2023-05-29T01:58:07;25.90;;;5.07;;
4696;SDS011;2362;50.780;0.292;2023-05-29T02:00:33;36.42;;;5.20;;
4696;SDS011;2362;50.780;0.292;2023-05-29T02:02:59;41.05;;;4.82;;
4696;SDS011;2362;50.780;0.292;2023-05-29T02:05:25;26.70;;;4.75;;
4696;SDS011;2362;50.780;0.292;2023-05-29T02:07:51;36.33;;;5.57;;
4696;SDS011;2362;50.780;0.292;2023-05-29T02:10:16;35.28;;;5.05;;
4696;SDS011;2362;50.780;0.292;2023-05-29T02:12:42;34.22;;;5.38;;
4696;SDS011;2362;50.780;0.292;2023-05-29T02:15:08;24.17;;;4.82;;
4696;SDS011;2362;50.780;0.292;2023-05-29T02:17:34;33.50;;;5.00;;
4696;SDS011;2362;50.780;0.292;2023-05-29T02:20:00;26.90;;;6.10;;
4696;SDS011;2362;50.780;0.292;2023-05-29T02:22:26;27.30;;;5.07;;
4696;SDS011;2362;50.780;0.292;2023-05-29T02:24:52;37.28;;;5.45;;
4696;SDS011;2362;50.780;0.292;2023-05-29T02:27:18;30.60;;;4.32;;
4696;SDS011;2362;50.780;0.292;2023-05-29T02:29:43;37.35;;;5.03;;
4696;SDS011;2362;50.780;0.292;2023-05-29T02:32:09;42.13;;;6.90;;
4696;SDS011;2362;50.780;0.292;2023-05-29T02:34:35;40.60;;;5.47;;
4696;SDS011;2362;50.780;0.292;2023-05-29T02:37:01;29.55;;;4.25;;
4696;SDS011;2362;50.780;0.292;2023-05-29T02:39:27;36.20;;;5.03;;
4696;SDS011;2362;50.780;0.292;2023-05-29T02:41:53;29.75;;;4.88;;
4696;SDS011;2362;50.780;0.292;2023-05-29T02:44:20;37.85;;;5.07;;
4696;SDS011;2362;50.780;0.292;2023-05-29T02:46:45;34.15;;;5.72;;
4696;SDS011;2362;50.780;0.292;2023-05-29T02:49:11;41.75;;;6.10;;
4696;SDS011;2362;50.780;0.292;2023-05-29T02:51:37;39.10;;;5.78;;
4696;SDS011;2362;50.780;0.292;2023-05-29T02:54:03;35.05;;;5.88;;
4696;SDS011;2362;50.780;0.292;2023-05-29T02:56:29;38.58;;;5.30;;
4696;SDS011;2362;50.780;0.292;2023-05-29T02:58:55;38.08;;;5.05;;
4696;SDS011;2362;50.780;0.292;2023-05-29T03:01:21;40.10;;;6.30;;
4696;SDS011;2362;50.780;0.292;2023-05-29T03:03:47;54.53;;;6.25;;
4696;SDS011;2362;50.780;0.292;2023-05-29T03:06:13;33.25;;;5.53;;
4696;SDS011;2362;50.780;0.292;2023-05-29T03:08:38;46.10;;;6.38;;
4696;SDS011;2362;50.780;0.292;2023-05-29T03:11:10;36.00;;;6.20;;
4696;SDS011;2362;50.780;0.292;2023-05-29T03:13:40;45.53;;;5.78;;
4696;SDS011;2362;50.780;0.292;2023-05-29T03:16:06;46.30;;;5.57;;
4696;SDS011;2362;50.780;0.292;2023-05-29T03:18:33;39.38;;;4.95;;
4696;SDS011;2362;50.780;0.292;2023-05-29T03:20:59;38.92;;;5.40;;
4696;SDS011;2362;50.780;0.292;2023-05-29T03:23:25;40.83;;;5.93;;
4696;SDS011;2362;50.780;0.292;2023-05-29T03:25:51;40.42;;;5.90;;
4696;SDS011;2362;50.780;0.292;2023-05-29T03:28:16;46.10;;;6.03;;
4696;SDS011;2362;50.780;0.292;2023-05-29T03:30:42;40.60;;;6.45;;
4696;SDS011;2362;50.780;0.292;2023-05-29T03:33:07;35.38;;;5.60;;
4696;SDS011;2362;50.780;0.292;2023-05-29T03:35:33;36.88;;;4.43;;
4696;SDS011;2362;50.780;0.292;2023-05-29T03:37:59;30.10;;;4.95;;
4696;SDS011;2362;50.780;0.292;2023-05-29T03:40:25;36.13;;;5.40;;
4696;SDS011;2362;50.780;0.292;2023-05-29T03:42:50;34.92;;;4.43;;
4696;SDS011;2362;50.780;0.292;2023-05-29T03:45:16;38.03;;;5.28;;
4696;SDS011;2362;50.780;0.292;2023-05-29T03:47:42;30.80;;;5.05;;
4696;SDS011;2362;50.780;0.292;2023-05-29T03:50:07;36.78;;;4.80;;
4696;SDS011;2362;50.780;0.292;2023-05-29T03:52:33;28.10;;;5.07;;
4696;SDS011;2362;50.780;0.292;2023-05-29T03:54:59;36.65;;;5.35;;
4696;SDS011;2362;50.780;0.292;2023-05-29T03:57:24;47.60;;;5.75;;
4696;SDS011;2362;50.780;0.292;2023-05-29T03:59:52;38.25;;;6.10;;
4696;SDS011;2362;50.780;0.292;2023-05-29T04:02:18;29.35;;;5.03;;
4696;SDS011;2362;50.780;0.292;2023-05-29T04:04:44;42.30;;;6.00;;
4696;SDS011;2362;50.780;0.292;2023-05-29T04:07:09;33.85;;;5.22;;
4696;SDS011;2362;50.780;0.292;2023-05-29T04:09:36;29.23;;;4.88;;
4696;SDS011;2362;50.780;0.292;2023-05-29T04:12:02;50.30;;;6.38;;
4696;SDS011;2362;50.780;0.292;2023-05-29T04:14:30;34.50;;;5.07;;
4696;SDS011;2362;50.780;0.292;2023-05-29T04:16:56;33.03;;;5.63;;
4696;SDS011;2362;50.780;0.292;2023-05-29T04:19:22;43.70;;;4.97;;
4696;SDS011;2362;50.780;0.292;2023-05-29T04:21:47;33.85;;;4.80;;
4696;SDS011;2362;50.780;0.292;2023-05-29T04:24:14;35.35;;;5.70;;
4696;SDS011;2362;50.780;0.292;2023-05-29T04:26:40;40.03;;;4.50;;
4696;SDS011;2362;50.780;0.292;2023-05-29T04:29:06;35.60;;;5.38;;
4696;SDS011;2362;50.780;0.292;2023-05-29T04:31:35;41.50;;;4.80;;
4696;SDS011;2362;50.780;0.292;2023-05-29T04:34:01;33.63;;;5.80;;
4696;SDS011;2362;50.780;0.292;2023-05-29T04:36:29;41.80;;;5.32;;
4696;SDS011;2362;50.780;0.292;2023-05-29T04:38:57;33.92;;;4.38;;
4696;SDS011;2362;50.780;0.292;2023-05-29T04:41:23;42.65;;;5.80;;
4696;SDS011;2362;50.780;0.292;2023-05-29T04:43:54;29.08;;;4.95;;
4696;SDS011;2362;50.780;0.292;2023-05-29T04:46:24;25.85;;;4.30;;
4696;SDS011;2362;50.780;0.292;2023-05-29T04:48:51;59.08;;;5.65;;
4696;SDS011;2362;50.780;0.292;2023-05-29T04:51:20;40.35;;;5.32;;
4696;SDS011;2362;50.780;0.292;2023-05-29T04:53:46;38.75;;;5.00;;
4696;SDS011;2362;50.780;0.292;2023-05-29T04:56:12;24.38;;;4.28;;
4696;SDS011;2362;50.780;0.292;2023-05-29T04:58:38;28.80;;;5.22;;
4696;SDS011;2362;50.780;0.292;2023-05-29T05:01:05;36.67;;;5.15;;
4696;SDS011;2362;50.780;0.292;2023-05-29T05:03:59;28.30;;;3.47;;
4696;SDS011;2362;50.780;0.292;2023-05-29T05:06:50;36.50;;;4.07;;
4696;SDS011;2362;50.780;0.292;2023-05-29T05:09:19;30.30;;;5.07;;
4696;SDS011;2362;50.780;0.292;2023-05-29T05:11:44;33.30;;;4.35;;
4696;SDS011;2362;50.780;0.292;2023-05-29T05:14:10;34.20;;;4.70;;
4696;SDS011;2362;50.780;0.292;2023-05-29T05:16:35;31.50;;;4.03;;
4696;SDS011;2362;50.780;0.292;2023-05-29T05:19:01;45.25;;;6.03;;
4696;SDS011;2362;50.780;0.292;2023-05-29T05:21:26;29.02;;;4.82;;
4696;SDS011;2362;50.780;0.292;2023-05-29T05:23:55;23.13;;;4.10;;
4696;SDS011;2362;50.780;0.292;2023-05-29T05:26:21;29.10;;;4.75;;
4696;SDS011;2362;50.780;0.292;2023-05-29T05:28:47;23.83;;;4.43;;
4696;SDS011;2362;50.780;0.292;2023-05-29T05:31:12;20.30;;;3.42;;
4696;SDS011;2362;50.780;0.292;2023-05-29T05:33:38;22.02;;;4.30;;
4696;SDS011;2362;50.780;0.292;2023-05-29T05:36:04;25.98;;;5.75;;
4696;SDS011;2362;50.780;0.292;2023-05-29T05:38:30;26.90;;;4.80;;
4696;SDS011;2362;50.780;0.292;2023-05-29T05:40:59;32.85;;;5.82;;
4696;SDS011;2362;50.780;0.292;2023-05-29T05:43:24;25.48;;;3.65;;
4696;SDS011;2362;50.780;0.292;2023-05-29T05:45:52;26.50;;;4.53;;
4696;SDS011;2362;50.780;0.292;2023-05-29T05:48:17;36.00;;;5.40;;
4696;SDS011;2362;50.780;0.292;2023-05-29T05:50:43;30.15;;;4.65;;
4696;SDS011;2362;50.780;0.292;2023-05-29T05:53:09;30.33;;;4.28;;
4696;SDS011;2362;50.780;0.292;2023-05-29T05:55:34;19.63;;;3.97;;
4696;SDS011;2362;50.780;0.292;2023-05-29T05:58:00;23.83;;;4.20;;
4696;SDS011;2362;50.780;0.292;2023-05-29T06:00:25;28.58;;;3.95;;
4696;SDS011;2362;50.780;0.292;2023-05-29T06:02:51;27.00;;;4.30;;
4696;SDS011;2362;50.780;0.292;2023-05-29T06:05:19;26.65;;;4.78;;
4696;SDS011;2362;50.780;0.292;2023-05-29T06:07:44;20.95;;;4.13;;
4696;SDS011;2362;50.780;0.292;2023-05-29T06:10:10;26.10;;;5.00;;
4696;SDS011;2362;50.780;0.292;2023-05-29T06:12:36;28.83;;;3.67;;
4696;SDS011;2362;50.780;0.292;2023-05-29T06:15:02;31.42;;;4.20;;
4696;SDS011;2362;50.780;0.292;2023-05-29T06:17:29;29.60;;;5.18;;
4696;SDS011;2362;50.780;0.292;2023-05-29T06:19:55;27.98;;;4.65;;
4696;SDS011;2362;50.780;0.292;2023-05-29T06:22:20;21.92;;;4.28;;
4696;SDS011;2362;50.780;0.292;2023-05-29T06:24:46;26.55;;;4.20;;
4696;SDS011;2362;50.780;0.292;2023-05-29T06:27:12;26.52;;;4.68;;
4696;SDS011;2362;50.780;0.292;2023-05-29T06:29:37;22.80;;;4.07;;
4696;SDS011;2362;50.780;0.292;2023-05-29T06:32:03;23.25;;;3.20;;
4696;SDS011;2362;50.780;0.292;2023-05-29T06:34:29;30.48;;;4.85;;
4696;SDS011;2362;50.780;0.292;2023-05-29T06:36:55;30.25;;;4.78;;
4696;SDS011;2362;50.780;0.292;2023-05-29T06:39:20;29.85;;;4.38;;
4696;SDS011;2362;50.780;0.292;2023-05-29T06:41:47;26.83;;;4.07;;
4696;SDS011;2362;50.780;0.292;2023-05-29T06:44:12;29.05;;;5.35;;
4696;SDS011;2362;50.780;0.292;2023-05-29T06:46:38;21.40;;;3.92;;
4696;SDS011;2362;50.780;0.292;2023-05-29T06:49:04;18.80;;;3.33;;
4696;SDS011;2362;50.780;0.292;2023-05-29T06:51:29;37.78;;;4.63;;
4696;SDS011;2362;50.780;0.292;2023-05-29T06:53:55;21.50;;;3.88;;
4696;SDS011;2362;50.780;0.292;2023-05-29T06:56:21;26.13;;;4.43;;
4696;SDS011;2362;50.780;0.292;2023-05-29T06:58:47;20.42;;;3.63;;
4696;SDS011;2362;50.780;0.292;2023-05-29T07:01:12;29.33;;;4.15;;
4696;SDS011;2362;50.780;0.292;2023-05-29T07:03:38;36.80;;;4.57;;
4696;SDS011;2362;50.780;0.292;2023-05-29T07:06:04;24.05;;;3.80;;
4696;SDS011;2362;50.780;0.292;2023-05-29T07:08:33;23.10;;;4.07;;
4696;SDS011;2362;50.780;0.292;2023-05-29T07:10:58;30.58;;;4.10;;
4696;SDS011;2362;50.780;0.292;2023-05-29T07:13:25;27.23;;;3.92;;
4696;SDS011;2362;50.780;0.292;2023-05-29T07:15:53;29.75;;;3.85;;
4696;SDS011;2362;50.780;0.292;2023-05-29T07:18:19;22.33;;;4.65;;
4696;SDS011;2362;50.780;0.292;2023-05-29T07:20:44;21.88;;;3.65;;
4696;SDS011;2362;50.780;0.292;2023-05-29T07:23:10;16.63;;;4.65;;
4696;SDS011;2362;50.780;0.292;2023-05-29T07:31:43;24.02;;;5.05;;
4696;SDS011;2362;50.780;0.292;2023-05-29T07:34:09;23.42;;;3.58;;
4696;SDS011;2362;50.780;0.292;2023-05-29T07:36:35;18.13;;;3.33;;
4696;SDS011;2362;50.780;0.292;2023-05-29T07:39:01;14.68;;;3.55;;
4696;SDS011;2362;50.780;0.292;2023-05-29T07:41:27;17.40;;;3.78;;
4696;SDS011;2362;50.780;0.292;2023-05-29T07:43:53;18.77;;;3.70;;
4696;SDS011;2362;50.780;0.292;2023-05-29T07:46:20;21.42;;;3.60;;
4696;SDS011;2362;50.780;0.292;2023-05-29T07:48:46;27.33;;;4.35;;
4696;SDS011;2362;50.780;0.292;2023-05-29T07:51:12;20.33;;;4.05;;
4696;SDS011;2362;50.780;0.292;2023-05-29T07:53:38;27.42;;;3.60;;
4696;SDS011;2362;50.780;0.292;2023-05-29T07:56:03;24.85;;;4.13;;
4696;SDS011;2362;50.780;0.292;2023-05-29T07:58:30;21.05;;;3.72;;
4696;SDS011;2362;50.780;0.292;2023-05-29T08:00:57;24.75;;;4.10;;
4696;SDS011;2362;50.780;0.292;2023-05-29T08:03:22;15.27;;;3.67;;
4696;SDS011;2362;50.780;0.292;2023-05-29T08:05:48;20.13;;;3.72;;
4696;SDS011;2362;50.780;0.292;2023-05-29T08:08:14;22.00;;;3.83;;
4696;SDS011;2362;50.780;0.292;2023-05-29T08:10:40;23.75;;;3.80;;
4696;SDS011;2362;50.780;0.292;2023-05-29T08:13:06;19.90;;;3.35;;
4696;SDS011;2362;50.780;0.292;2023-05-29T08:15:31;24.08;;;4.70;;
4696;SDS011;2362;50.780;0.292;2023-05-29T08:17:57;21.52;;;3.72;;
4696;SDS011;2362;50.780;0.292;2023-05-29T08:20:23;26.15;;;3.65;;
4696;SDS011;2362;50.780;0.292;2023-05-29T08:22:48;28.73;;;4.00;;
4696;SDS011;2362;50.780;0.292;2023-05-29T08:25:14;25.88;;;3.97;;
4696;SDS011;2362;50.780;0.292;2023-05-29T08:27:39;18.92;;;3.13;;
4696;SDS011;2362;50.780;0.292;2023-05-29T08:30:05;26.02;;;4.00;;
4696;SDS011;2362;50.780;0.292;2023-05-29T08:32:31;17.50;;;2.92;;
4696;SDS011;2362;50.780;0.292;2023-05-29T08:34:57;15.95;;;3.58;;
4696;SDS011;2362;50.780;0.292;2023-05-29T08:37:22;19.95;;;3.72;;
4696;SDS011;2362;50.780;0.292;2023-05-29T08:39:49;20.48;;;3.67;;
4696;SDS011;2362;50.780;0.292;2023-05-29T08:42:18;20.88;;;3.90;;
4696;SDS011;2362;50.780;0.292;2023-05-29T08:44:48;19.45;;;4.05;;
4696;SDS011;2362;50.780;0.292;2023-05-29T08:47:15;24.52;;;3.50;;
4696;SDS011;2362;50.780;0.292;2023-05-29T08:49:47;28.88;;;4.07;;
4696;SDS011;2362;50.780;0.292;2023-05-29T08:52:21;17.15;;;3.63;;
4696;SDS011;2362;50.780;0.292;2023-05-29T08:54:50;26.13;;;3.78;;
4696;SDS011;2362;50.780;0.292;2023-05-29T08:57:16;20.55;;;3.55;;
4696;SDS011;2362;50.780;0.292;2023-05-29T08:59:43;30.20;;;4.05;;
4696;SDS011;2362;50.780;0.292;2023-05-29T09:02:10;11.30;;;3.03;;
4696;SDS011;2362;50.780;0.292;2023-05-29T09:04:42;28.02;;;3.88;;
4696;SDS011;2362;50.780;0.292;2023-05-29T09:07:13;20.98;;;4.05;;
4696;SDS011;2362;50.780;0.292;2023-05-29T09:09:40;22.17;;;3.42;;
4696;SDS011;2362;50.780;0.292;2023-05-29T09:12:06;21.58;;;4.85;;
4696;SDS011;2362;50.780;0.292;2023-05-29T09:14:36;22.23;;;4.55;;
4696;SDS011;2362;50.780;0.292;2023-05-29T09:17:04;27.25;;;4.25;;
4696;SDS011;2362;50.780;0.292;2023-05-29T09:19:31;20.38;;;2.90;;
4696;SDS011;2362;50.780;0.292;2023-05-29T09:22:04;19.67;;;3.80;;
4696;SDS011;2362;50.780;0.292;2023-05-29T09:24:34;22.55;;;3.20;;
4696;SDS011;2362;50.780;0.292;2023-05-29T09:27:01;20.17;;;3.70;;
4696;SDS011;2362;50.780;0.292;2023-05-29T09:29:32;26.50;;;4.47;;
4696;SDS011;2362;50.780;0.292;2023-05-29T09:32:09;22.67;;;3.22;;
4696;SDS011;2362;50.780;0.292;2023-05-29T09:34:36;17.63;;;2.88;;
4696;SDS011;2362;50.780;0.292;2023-05-29T09:42:07;25.85;;;3.38;;
4696;SDS011;2362;50.780;0.292;2023-05-29T09:44:37;20.10;;;3.53;;
4696;SDS011;2362;50.780;0.292;2023-05-29T09:47:04;30.88;;;4.93;;
4696;SDS011;2362;50.780;0.292;2023-05-29T09:49:31;24.80;;;4.30;;
4696;SDS011;2362;50.780;0.292;2023-05-29T09:51:57;42.25;;;4.97;;
4696;SDS011;2362;50.780;0.292;2023-05-29T09:54:26;22.60;;;4.10;;
4696;SDS011;2362;50.780;0.292;2023-05-29T09:56:56;24.13;;;3.63;;
4696;SDS011;2362;50.780;0.292;2023-05-29T09:59:23;20.83;;;3.20;;
4696;SDS011;2362;50.780;0.292;2023-05-29T10:01:54;16.80;;;3.05;;
4696;SDS011;2362;50.780;0.292;2023-05-29T10:04:36;25.45;;;3.65;;
4696;SDS011;2362;50.780;0.292;2023-05-29T10:07:09;15.38;;;2.90;;
4696;SDS011;2362;50.780;0.292;2023-05-29T10:09:44;17.85;;;3.00;;
4696;SDS011;2362;50.780;0.292;2023-05-29T10:12:13;16.63;;;3.17;;
4696;SDS011;2362;50.780;0.292;2023-05-29T10:14:43;23.20;;;2.65;;
4696;SDS011;2362;50.780;0.292;2023-05-29T10:17:10;17.73;;;2.72;;
4696;SDS011;2362;50.780;0.292;2023-05-29T10:19:38;19.48;;;4.10;;
4696;SDS011;2362;50.780;0.292;2023-05-29T10:22:04;16.02;;;3.20;;
4696;SDS011;2362;50.780;0.292;2023-05-29T10:24:31;19.10;;;3.60;;
4696;SDS011;2362;50.780;0.292;2023-05-29T10:26:58;23.30;;;4.50;;
4696;SDS011;2362;50.780;0.292;2023-05-29T10:35:17;16.83;;;3.45;;
4696;SDS011;2362;50.780;0.292;2023-05-29T10:37:53;24.17;;;3.17;;
4696;SDS011;2362;50.780;0.292;2023-05-29T10:40:25;23.42;;;3.55;;
4696;SDS011;2362;50.780;0.292;2023-05-29T10:42:52;20.90;;;3.75;;
4696;SDS011;2362;50.780;0.292;2023-05-29T10:50:38;14.48;;;3.10;;
4696;SDS011;2362;50.780;0.292;2023-05-29T10:53:06;17.33;;;3.33;;
4696;SDS011;2362;50.780;0.292;2023-05-29T10:55:39;22.45;;;3.53;;
4696;SDS011;2362;50.780;0.292;2023-05-29T10:58:08;22.13;;;4.05;;
4696;SDS011;2362;50.780;0.292;2023-05-29T11:00:50;23.15;;;4.07;;
4696;SDS011;2362;50.780;0.292;2023-05-29T11:03:22;18.35;;;3.15;;
4696;SDS011;2362;50.780;0.292;2023-05-29T11:13:54;25.63;;;4.38;;
4696;SDS011;2362;50.780;0.292;2023-05-29T11:18:49;19.45;;;3.53;;
4696;SDS011;2362;50.780;0.292;2023-05-29T11:24:00;13.05;;;2.90;;
4696;SDS011;2362;50.780;0.292;2023-05-29T11:26:31;23.40;;;3.28;;
4696;SDS011;2362;50.780;0.292;2023-05-29T11:28:58;27.20;;;3.75;;
4696;SDS011;2362;50.780;0.292;2023-05-29T11:31:36;28.60;;;5.20;;
4696;SDS011;2362;50.780;0.292;2023-05-29T11:34:04;17.50;;;3.95;;
4696;SDS011;2362;50.780;0.292;2023-05-29T11:36:33;8.60;;;2.65;;
4696;SDS011;2362;50.780;0.292;2023-05-29T11:39:00;25.02;;;3.67;;
4696;SDS011;2362;50.780;0.292;2023-05-29T11:41:26;26.23;;;3.40;;
4696;SDS011;2362;50.780;0.292;2023-05-29T11:44:01;20.73;;;4.25;;
4696;SDS011;2362;50.780;0.292;2023-05-29T11:46:31;11.95;;;3.10;;
4696;SDS011;2362;50.780;0.292;2023-05-29T11:48:57;26.02;;;5.40;;
4696;SDS011;2362;50.780;0.292;2023-05-29T11:51:27;30.83;;;4.20;;
4696;SDS011;2362;50.780;0.292;2023-05-29T11:53:53;24.52;;;3.92;;
4696;SDS011;2362;50.780;0.292;2023-05-29T11:56:23;27.23;;;3.80;;
4696;SDS011;2362;50.780;0.292;2023-05-29T11:58:50;40.20;;;5.30;;
4696;SDS011;2362;50.780;0.292;2023-05-29T12:01:20;14.73;;;3.53;;
4696;SDS011;2362;50.780;0.292;2023-05-29T12:03:46;29.10;;;4.22;;
4696;SDS011;2362;50.780;0.292;2023-05-29T12:06:12;31.58;;;5.75;;
4696;SDS011;2362;50.780;0.292;2023-05-29T12:08:38;27.02;;;6.35;;
4696;SDS011;2362;50.780;0.292;2023-05-29T12:11:04;32.75;;;4.82;;
4696;SDS011;2362;50.780;0.292;2023-05-29T12:13:30;14.65;;;4.10;;
4696;SDS011;2362;50.780;0.292;2023-05-29T12:15:56;27.73;;;3.72;;
4696;SDS011;2362;50.780;0.292;2023-05-29T12:18:28;16.65;;;3.95;;
4696;SDS011;2362;50.780;0.292;2023-05-29T12:20:57;16.38;;;3.53;;
4696;SDS011;2362;50.780;0.292;2023-05-29T12:23:24;27.20;;;4.13;;
4696;SDS011;2362;50.780;0.292;2023-05-29T12:25:51;26.08;;;3.90;;
4696;SDS011;2362;50.780;0.292;2023-05-29T12:28:18;22.73;;;5.00;;
4696;SDS011;2362;50.780;0.292;2023-05-29T12:30:44;18.55;;;3.67;;
4696;SDS011;2362;50.780;0.292;2023-05-29T12:33:30;11.02;;;3.38;;
4696;SDS011;2362;50.780;0.292;2023-05-29T12:36:04;23.10;;;3.72;;
4696;SDS011;2362;50.780;0.292;2023-05-29T12:38:47;28.13;;;3.65;;
4696;SDS011;2362;50.780;0.292;2023-05-29T12:41:31;17.80;;;3.42;;
4696;SDS011;2362;50.780;0.292;2023-05-29T12:44:00;23.25;;;3.35;;
4696;SDS011;2362;50.780;0.292;2023-05-29T12:46:27;24.55;;;3.75;;
4696;SDS011;2362;50.780;0.292;2023-05-29T12:49:11;16.77;;;3.78;;
4696;SDS011;2362;50.780;0.292;2023-05-29T12:51:40;21.75;;;3.97;;
4696;SDS011;2362;50.780;0.292;2023-05-29T12:54:10;22.35;;;3.15;;
4696;SDS011;2362;50.780;0.292;2023-05-29T12:56:37;19.58;;;4.60;;
4696;SDS011;2362;50.780;0.292;2023-05-29T12:59:05;26.00;;;3.90;;
4696;SDS011;2362;50.780;0.292;2023-05-29T13:01:32;20.80;;;4.93;;
4696;SDS011;2362;50.780;0.292;2023-05-29T13:03:58;29.40;;;4.07;;
4696;SDS011;2362;50.780;0.292;2023-05-29T13:06:23;27.23;;;3.50;;
4696;SDS011;2362;50.780;0.292;2023-05-29T13:08:49;25.58;;;4.40;;
4696;SDS011;2362;50.780;0.292;2023-05-29T13:11:15;22.48;;;3.30;;
4696;SDS011;2362;50.780;0.292;2023-05-29T13:13:41;29.60;;;4.28;;
4696;SDS011;2362;50.780;0.292;2023-05-29T13:16:07;18.60;;;3.33;;
4696;SDS011;2362;50.780;0.292;2023-05-29T13:18:33;26.55;;;5.05;;
4696;SDS011;2362;50.780;0.292;2023-05-29T13:21:00;22.13;;;3.58;;
4696;SDS011;2362;50.780;0.292;2023-05-29T13:23:26;21.05;;;4.28;;
4696;SDS011;2362;50.780;0.292;2023-05-29T13:25:52;21.45;;;4.65;;
4696;SDS011;2362;50.780;0.292;2023-05-29T13:28:17;29.60;;;4.70;;
4696;SDS011;2362;50.780;0.292;2023-05-29T13:30:43;23.67;;;4.38;;
4696;SDS011;2362;50.780;0.292;2023-05-29T13:33:09;35.08;;;5.60;;
4696;SDS011;2362;50.780;0.292;2023-05-29T13:35:35;22.80;;;3.90;;
4696;SDS011;2362;50.780;0.292;2023-05-29T13:38:01;24.25;;;3.78;;
4696;SDS011;2362;50.780;0.292;2023-05-29T13:40:27;16.33;;;3.28;;
4696;SDS011;2362;50.780;0.292;2023-05-29T13:42:53;17.40;;;3.33;;
4696;SDS011;2362;50.780;0.292;2023-05-29T13:45:19;19.92;;;3.10;;
4696;SDS011;2362;50.780;0.292;2023-05-29T13:47:45;20.42;;;4.20;;
4696;SDS011;2362;50.780;0.292;2023-05-29T13:50:10;20.58;;;3.80;;
4696;SDS011;2362;50.780;0.292;2023-05-29T13:52:36;28.48;;;4.38;;
4696;SDS011;2362;50.780;0.292;2023-05-29T13:55:02;20.13;;;3.33;;
4696;SDS011;2362;50.780;0.292;2023-05-29T13:57:33;29.90;;;4.97;;
4696;SDS011;2362;50.780;0.292;2023-05-29T14:00:02;27.23;;;4.97;;
4696;SDS011;2362;50.780;0.292;2023-05-29T14:02:29;25.52;;;4.00;;
4696;SDS011;2362;50.780;0.292;2023-05-29T14:04:54;29.77;;;4.43;;
4696;SDS011;2362;50.780;0.292;2023-05-29T14:07:20;20.20;;;3.92;;
4696;SDS011;2362;50.780;0.292;2023-05-29T14:09:46;26.23;;;3.50;;
4696;SDS011;2362;50.780;0.292;2023-05-29T14:12:11;29.63;;;4.68;;
4696;SDS011;2362;50.780;0.292;2023-05-29T14:14:37;19.63;;;4.45;;
4696;SDS011;2362;50.780;0.292;2023-05-29T14:17:03;38.08;;;5.85;;
4696;SDS011;2362;50.780;0.292;2023-05-29T14:19:30;33.10;;;5.25;;
4696;SDS011;2362;50.780;0.292;2023-05-29T14:21:55;25.23;;;5.45;;
4696;SDS011;2362;50.780;0.292;2023-05-29T14:24:21;19.15;;;4.45;;
4696;SDS011;2362;50.780;0.292;2023-05-29T14:26:47;23.77;;;4.20;;
4696;SDS011;2362;50.780;0.292;2023-05-29T14:29:13;36.45;;;4.60;;
4696;SDS011;2362;50.780;0.292;2023-05-29T14:31:39;21.95;;;4.03;;
4696;SDS011;2362;50.780;0.292;2023-05-29T14:34:08;25.38;;;3.72;;
4696;SDS011;2362;50.780;0.292;2023-05-29T14:36:34;24.85;;;4.47;;
4696;SDS011;2362;50.780;0.292;2023-05-29T14:39:01;17.85;;;3.72;;
4696;SDS011;2362;50.780;0.292;2023-05-29T14:41:27;18.90;;;4.80;;
4696;SDS011;2362;50.780;0.292;2023-05-29T14:43:52;30.98;;;4.07;;
4696;SDS011;2362;50.780;0.292;2023-05-29T14:46:18;27.58;;;4.88;;
4696;SDS011;2362;50.780;0.292;2023-05-29T14:48:44;29.55;;;4.53;;
4696;SDS011;2362;50.780;0.292;2023-05-29T14:51:12;27.55;;;4.68;;
4696;SDS011;2362;50.780;0.292;2023-05-29T14:53:41;20.25;;;3.60;;
4696;SDS011;2362;50.780;0.292;2023-05-29T14:56:07;26.65;;;5.18;;
4696;SDS011;2362;50.780;0.292;2023-05-29T14:58:32;37.63;;;4.95;;
4696;SDS011;2362;50.780;0.292;2023-05-29T15:00:58;31.23;;;4.40;;
4696;SDS011;2362;50.780;0.292;2023-05-29T15:03:23;26.45;;;4.30;;
4696;SDS011;2362;50.780;0.292;2023-05-29T15:05:52;23.15;;;4.53;;
4696;SDS011;2362;50.780;0.292;2023-05-29T15:08:18;28.35;;;4.00;;
4696;SDS011;2362;50.780;0.292;2023-05-29T15:10:44;47.10;;;4.85;;
4696;SDS011;2362;50.780;0.292;2023-05-29T15:13:10;32.65;;;3.88;;
4696;SDS011;2362;50.780;0.292;2023-05-29T15:15:36;32.45;;;4.18;;
4696;SDS011;2362;50.780;0.292;2023-05-29T15:18:01;38.47;;;5.72;;
4696;SDS011;2362;50.780;0.292;2023-05-29T15:20:27;21.92;;;3.67;;
4696;SDS011;2362;50.780;0.292;2023-05-29T15:22:53;23.85;;;4.30;;
4696;SDS011;2362;50.780;0.292;2023-05-29T15:25:19;33.45;;;4.63;;
4696;SDS011;2362;50.780;0.292;2023-05-29T15:27:46;30.52;;;4.78;;
4696;SDS011;2362;50.780;0.292;2023-05-29T15:30:13;24.27;;;3.47;;
4696;SDS011;2362;50.780;0.292;2023-05-29T15:32:46;24.73;;;4.63;;
4696;SDS011;2362;50.780;0.292;2023-05-29T15:35:13;26.98;;;3.60;;
4696;SDS011;2362;50.780;0.292;2023-05-29T15:37:40;23.98;;;3.65;;
4696;SDS011;2362;50.780;0.292;2023-05-29T15:40:07;31.92;;;4.38;;
4696;SDS011;2362;50.780;0.292;2023-05-29T15:42:34;20.20;;;3.95;;
4696;SDS011;2362;50.780;0.292;2023-05-29T15:45:01;40.65;;;4.50;;
4696;SDS011;2362;50.780;0.292;2023-05-29T15:47:29;32.92;;;4.82;;